Hauptseite
METAR-TAF:

METAR-TAF

Flughäfen :

Gran Canaria, Spanien

Flughafen Gran Canaria

Breite: 27-56N, Länge: 015-23W, Höhe: 23 m

Beobachtung

Neuester Wetterbericht von vor 41 Minuten, um 11:00 UTC
Wind 27 kt aus Nord
Temperatur 26°C
Luftfeuchtigkeit 54%
Luftdruck 1016 hPa
Sichtweite 10 km oder mehr
Leicht bewölkt in der Höhe von 3500 ft

METAR: GCLP 221100Z 01027KT 9999 FEW035 26/16 Q1016 NOSIG

Zeit: 12:41 (11:41 UTC)

Prognose

Neuester Wetterbericht von vor 3 Stunden und 41 Minuten, um 08:00 UTC
Gültige Prognose vom 22 um 09 UTC bis 23 um 09 UTC
Wind 23 kt aus Nord
Sichtweite 10 km oder mehr
Aufgelockert bewölkt in der Höhe von 3500 ft
Zeitweise
vom 22 um 09 UTC bis 23 um 09 UTC
Wind 24 kt aus Nord, Böen bis zu 34 kt

TAF: GCLP 220800Z 2209/2309 01023KT 9999 SCT035 TX26/2214Z TN21/2306Z TEMPO 2209/2309 01024G34KT

Wetterbeobachtungen und Prognosen von mehr als 4000 Flughäfen (METAR und TAF Bericht).

Die verfügbaren Stationen werden durch gelbe und rote Markierungen auf der Karte dargestellt.

Führen Sie die Maus auf sie, um den Namen der Station zu sehen.

Darauf klicken, um die Beobachtung von Wetterbeobachtungen und Prognosen zu sehen.

Um die Karte zu ändern : klicken Sie auf den grünen Tasten mit einem schwarzen Kreuz Zum Vergrößern, auf den grünen Button mit einem Gedankenstrich zu verkleinern, oder auf die grünen Pfeile für benachbarte Karten.


METAR-TAF: